Negotin, Serbia
Current Conditions -  °F | °C
As of 6:30 PM on Monday 24 Nov 2014 (Local Time) from LRCV Reporting Station
Broken Clouds Broken Clouds  
Wind Chill: 27°   Ceiling: 3900
Heat Index: 36°   Visibility: 6mi
Dew Point: 32°   Wind: 14mph
Humidity: 87%   Direction: 80°E
Pressure: 30.39"   Gusts: NA
Location:  44.23°N, 22.53°E
Report Text: LRCV 241630Z 08012KT 9999 BKN039 02/M00 Q1029
Loading
Personal Weather Stations






























Interactive Weather Map New forecast layout! Learn more

10-Day Weather Forecast

Advertisements
Track Severe Weather on mobile